Eyr Myken — LCQU — position and weather

sailwx.info

Track history (hours):
 
Tides and Currents Weather Stations Pressure Air Temp Water Temp Dewpoint Dewpoint Depression Visibility Wind Speed Wind Dir Waves Ship Positions

Eyr Myken

Last reported at 2018-Apr-23 06:10 UTC. Time now 2018-Apr-24 03:04 UTC.
Position N 66°07' E 012°45'.

Length 18 m.

Type: Medical transport. MMSI: 257054000.

Date/timePositionNaut miles runAvg speedWind from/ knotsBaromVisibWave heightAir tempDewpointWater temp
2018-Apr-23 06:10N 66°07' E 012°45'1429.6
2018-Apr-23 05:41N 66°21' E 012°57'528.6
2018-Apr-23 05:30N 66°26' E 012°59'  
2018-Apr-20 08:19N 66°32' E 012°53'515.2
2018-Apr-20 07:58N 66°27' E 012°48'14 0.3
2018-Apr-18 12:20N 66°39' E 013°05'512.0
2018-Apr-18 11:54N 66°38' E 013°17'5 1.5
2018-Apr-18 08:22N 66°33' E 013°12'7 0.4
2018-Apr-17 15:39N 66°39' E 013°05'0 0.0
2018-Apr-17 15:27N 66°39' E 013°05'0 0.0
2018-Apr-17 14:58N 66°39' E 013°05'0 0.0
2018-Apr-17 14:30N 66°39' E 013°05'0 0.0
2018-Apr-17 09:42N 66°39' E 013°05'0 0.0
2018-Apr-17 09:30N 66°39' E 013°05'0 0.0
2018-Apr-17 03:18N 66°39' E 013°05'0 0.0
2018-Apr-17 03:00N 66°39' E 013°05'0 0.0
2018-Apr-17 02:28N 66°39' E 013°05'0 0.0
2018-Apr-17 02:00N 66°39' E 013°05'0 0.0
2018-Apr-17 01:30N 66°39' E 013°05'0 0.0
2018-Apr-17 00:54N 66°39' E 013°05'0 0.0
2018-Apr-17 00:22N 66°39' E 013°05'0 0.0
2018-Apr-16 23:56N 66°39' E 013°05'0 0.0
2018-Apr-16 23:19N 66°39' E 013°05'0 0.0
2018-Apr-16 22:49N 66°39' E 013°05'0 0.0
2018-Apr-16 22:25N 66°39' E 013°05'0 0.0
2018-Apr-16 21:52N 66°39' E 013°05'0 0.0
2018-Apr-16 20:15N 66°39' E 013°05'728.5
2018-Apr-16 20:00N 66°33' E 013°01'1220.9
2018-Apr-16 19:25N 66°20' E 013°00'511.8
2018-Apr-16 18:59N 66°24' E 012°51'1428.5
2018-Apr-16 18:30N 66°37' E 012°59'3 1.0
2018-Apr-16 15:27N 66°39' E 013°05'1 1.1
2018-Apr-16 14:57N 66°39' E 013°06'7 9.1
2018-Apr-16 14:12N 66°34' E 012°54'527.5
2018-Apr-16 14:00N 66°36' E 012°41'1 1.3
2018-Apr-16 13:30N 66°36' E 012°40'713.9
2018-Apr-16 13:01N 66°32' E 012°55'1223.9
2018-Apr-16 12:30N 66°20' E 013°00'1325.7
2018-Apr-16 12:00N 66°33' E 013°02'911.6
2018-Apr-16 11:15N 66°41' E 013°13'627.3
2018-Apr-16 11:00N 66°35' E 013°07'6 1.8
2018-Apr-16 07:41N 66°29' E 013°14'1 2.1
2018-Apr-16 07:21N 66°29' E 013°16'1027.2
2018-Apr-16 06:59N 66°39' E 013°06'1 0.1
2018-Apr-16 00:47N 66°39' E 013°05'0 0.0
2018-Apr-16 00:29N 66°39' E 013°05'0 0.0
2018-Apr-15 23:43N 66°39' E 013°05'0 0.0
2018-Apr-15 23:26N 66°39' E 013°05'0 0.0
2018-Apr-15 22:52N 66°39' E 013°05'0 0.0
2018-Apr-15 22:26N 66°39' E 013°05'0 0.0
2018-Apr-15 13:45N 66°39' E 013°05'0 0.0
2018-Apr-15 02:03N 66°39' E 013°05'0 0.0
2018-Apr-15 01:57N 66°39' E 013°05'0 0.0
2018-Apr-15 01:30N 66°39' E 013°05'0 0.0
2018-Apr-15 00:51N 66°39' E 013°05'0 0.0
2018-Apr-15 00:23N 66°39' E 013°05'0 0.0
2018-Apr-14 20:48N 66°39' E 013°05'0 0.0
2018-Apr-14 20:04N 66°39' E 013°05'0 0.0
2018-Apr-14 13:09N 66°39' E 013°05'0 0.0
2018-Apr-14 12:40N 66°39' E 013°05'0 0.0
2018-Apr-14 10:53N 66°39' E 013°05'0 0.0
2018-Apr-13 07:57N 66°39' E 013°05'  
Track history (hours):
 
Tides and Currents Weather Stations Pressure Air Temp Water Temp Dewpoint Dewpoint Depression Visibility Wind Speed Wind Dir Waves Ship Positions

Eyr Myken

Last reported at 2018-Apr-23 06:10 UTC. Time now 2018-Apr-24 03:04 UTC.
Position N 66°07' E 012°45'.

Length 18 m.

Type: Medical transport. MMSI: 257054000.

Date/timePositionNaut miles runAvg speedWind from/ knotsBaromVisibWave heightAir tempDewpointWater temp
2018-Apr-23 06:10N 66°07' E 012°45'1429.6
2018-Apr-23 05:41N 66°21' E 012°57'528.6
2018-Apr-23 05:30N 66°26' E 012°59'  
2018-Apr-20 08:19N 66°32' E 012°53'515.2
2018-Apr-20 07:58N 66°27' E 012°48'14 0.3
2018-Apr-18 12:20N 66°39' E 013°05'512.0
2018-Apr-18 11:54N 66°38' E 013°17'5 1.5
2018-Apr-18 08:22N 66°33' E 013°12'7 0.4
2018-Apr-17 15:39N 66°39' E 013°05'0 0.0
2018-Apr-17 15:27N 66°39' E 013°05'0 0.0
2018-Apr-17 14:58N 66°39' E 013°05'0 0.0
2018-Apr-17 14:30N 66°39' E 013°05'0 0.0
2018-Apr-17 09:42N 66°39' E 013°05'0 0.0
2018-Apr-17 09:30N 66°39' E 013°05'0 0.0
2018-Apr-17 03:18N 66°39' E 013°05'0 0.0
2018-Apr-17 03:00N 66°39' E 013°05'0 0.0
2018-Apr-17 02:28N 66°39' E 013°05'0 0.0
2018-Apr-17 02:00N 66°39' E 013°05'0 0.0
2018-Apr-17 01:30N 66°39' E 013°05'0 0.0
2018-Apr-17 00:54N 66°39' E 013°05'0 0.0
2018-Apr-17 00:22N 66°39' E 013°05'0 0.0
2018-Apr-16 23:56N 66°39' E 013°05'0 0.0
2018-Apr-16 23:19N 66°39' E 013°05'0 0.0
2018-Apr-16 22:49N 66°39' E 013°05'0 0.0
2018-Apr-16 22:25N 66°39' E 013°05'0 0.0
2018-Apr-16 21:52N 66°39' E 013°05'0 0.0
2018-Apr-16 20:15N 66°39' E 013°05'728.5
2018-Apr-16 20:00N 66°33' E 013°01'1220.9
2018-Apr-16 19:25N 66°20' E 013°00'511.8
2018-Apr-16 18:59N 66°24' E 012°51'1428.5
2018-Apr-16 18:30N 66°37' E 012°59'3 1.0
2018-Apr-16 15:27N 66°39' E 013°05'1 1.1
2018-Apr-16 14:57N 66°39' E 013°06'7 9.1
2018-Apr-16 14:12N 66°34' E 012°54'527.5
2018-Apr-16 14:00N 66°36' E 012°41'1 1.3
2018-Apr-16 13:30N 66°36' E 012°40'713.9
2018-Apr-16 13:01N 66°32' E 012°55'1223.9
2018-Apr-16 12:30N 66°20' E 013°00'1325.7
2018-Apr-16 12:00N 66°33' E 013°02'911.6
2018-Apr-16 11:15N 66°41' E 013°13'627.3
2018-Apr-16 11:00N 66°35' E 013°07'6 1.8
2018-Apr-16 07:41N 66°29' E 013°14'1 2.1
2018-Apr-16 07:21N 66°29' E 013°16'1027.2
2018-Apr-16 06:59N 66°39' E 013°06'1 0.1
2018-Apr-16 00:47N 66°39' E 013°05'0 0.0
2018-Apr-16 00:29N 66°39' E 013°05'0 0.0
2018-Apr-15 23:43N 66°39' E 013°05'0 0.0
2018-Apr-15 23:26N 66°39' E 013°05'0 0.0
2018-Apr-15 22:52N 66°39' E 013°05'0 0.0
2018-Apr-15 22:26N 66°39' E 013°05'0 0.0
2018-Apr-15 13:45N 66°39' E 013°05'0 0.0
2018-Apr-15 02:03N 66°39' E 013°05'0 0.0
2018-Apr-15 01:57N 66°39' E 013°05'0 0.0
2018-Apr-15 01:30N 66°39' E 013°05'0 0.0
2018-Apr-15 00:51N 66°39' E 013°05'0 0.0
2018-Apr-15 00:23N 66°39' E 013°05'0 0.0
2018-Apr-14 20:48N 66°39' E 013°05'0 0.0
2018-Apr-14 20:04N 66°39' E 013°05'0 0.0
2018-Apr-14 13:09N 66°39' E 013°05'0 0.0
2018-Apr-14 12:40N 66°39' E 013°05'0 0.0
2018-Apr-14 10:53N 66°39' E 013°05'0 0.0
2018-Apr-13 07:57N 66°39' E 013°05'  

Dump ship's entire track history